Time;durP1;ratioP1;P1;durP2;ratioP2;P2;SDS_P1;SDS_P2;PMS_P1;PMS_P2;Temp;Humidity;BMP_temperature;BMP_pressure;BME280_temperature;BME280_humidity;BME280_pressure;Samples;Min_cycle;Max_cycle;Signal;HPM_P1;HPM_P2
2022/10/27 00:00:08;;;;;;;11.90;5.75;;;14.40;99.90;;;;;;4936826;29;20097;-69
2022/10/27 00:02:33;;;;;;;14.63;6.43;;;14.20;99.90;;;;;;4938845;29;20039;-69
2022/10/27 00:04:59;;;;;;;11.52;5.60;;;14.30;99.90;;;;;;4938837;29;20493;-68
2022/10/27 00:07:24;;;;;;;11.88;6.20;;;14.40;99.90;;;;;;4938049;29;20489;-68
2022/10/27 00:09:50;;;;;;;13.55;6.35;;;;;;;;;;4955634;29;20450;-68
2022/10/27 00:12:16;;;;;;;13.95;5.88;;;14.20;99.90;;;;;;4937842;28;20047;-68
2022/10/27 00:14:41;;;;;;;10.57;5.93;;;14.20;99.90;;;;;;4948921;28;20102;-68
2022/10/27 00:17:07;;;;;;;15.60;6.32;;;14.10;99.90;;;;;;4955753;29;20114;-69
2022/10/27 00:19:32;;;;;;;10.82;5.60;;;14.10;99.90;;;;;;4938638;29;20050;-69
2022/10/27 00:21:58;;;;;;;12.85;5.72;;;14.00;99.90;;;;;;4954377;29;20024;-68
2022/10/27 00:24:24;;;;;;;10.55;5.70;;;14.10;99.90;;;;;;4937805;29;20043;-68
2022/10/27 00:26:50;;;;;;;10.77;5.75;;;14.10;99.90;;;;;;4937889;29;20442;-69
2022/10/27 00:29:15;;;;;;;19.67;7.22;;;14.00;99.90;;;;;;4954564;28;20138;-68
2022/10/27 00:31:41;;;;;;;12.00;5.82;;;14.00;99.90;;;;;;4936758;28;20418;-69
2022/10/27 00:34:06;;;;;;;14.27;6.47;;;14.00;99.90;;;;;;4955298;29;20404;-69
2022/10/27 00:36:32;;;;;;;13.30;6.15;;;13.90;99.90;;;;;;4933518;29;20039;-68
2022/10/27 00:38:58;;;;;;;11.35;6.40;;;14.10;99.90;;;;;;4936492;29;20453;-69
2022/10/27 00:41:28;;;;;;;16.35;6.10;;;14.10;99.90;;;;;;4937808;29;20086;-69
2022/10/27 00:43:56;;;;;;;15.60;6.43;;;14.10;99.90;;;;;;4937942;29;20108;-68
2022/10/27 00:46:28;;;;;;;15.57;6.25;;;14.10;99.90;;;;;;4943054;28;20383;-68
2022/10/27 00:49:02;;;;;;;16.73;7.40;;;14.10;99.90;;;;;;4936331;29;20051;-68
2022/10/27 00:51:28;;;;;;;15.67;6.90;;;14.10;99.90;;;;;;4931140;29;20052;-68
2022/10/27 00:53:54;;;;;;;15.77;6.95;;;14.20;99.90;;;;;;4948130;29;20106;-69
2022/10/27 00:56:21;;;;;;;14.48;7.22;;;14.20;99.90;;;;;;4937409;29;20062;-68
2022/10/27 00:58:47;;;;;;;14.90;7.38;;;;;;;;;;4937102;28;20046;-69
2022/10/27 01:01:13;;;;;;;17.42;7.55;;;;;;;;;;4936309;29;20083;-68
2022/10/27 01:03:39;;;;;;;16.85;7.63;;;14.40;99.90;;;;;;4936966;29;20051;-68
2022/10/27 01:06:05;;;;;;;16.27;7.65;;;;;;;;;;4937565;29;20047;-68
2022/10/27 01:08:31;;;;;;;15.95;7.32;;;14.40;99.90;;;;;;4937282;29;20047;-69
2022/10/27 01:10:56;;;;;;;22.60;7.07;;;;;;;;;;4952910;28;20032;-68
2022/10/27 01:13:23;;;;;;;16.40;7.00;;;14.30;99.90;;;;;;4954069;29;20062;-68
2022/10/27 01:16:12;;;;;;;18.83;6.43;;;14.50;99.90;;;;;;4955079;29;20075;-68
2022/10/27 01:18:59;;;;;;;13.15;6.72;;;14.40;99.90;;;;;;4942491;29;20054;-68
2022/10/27 01:21:50;;;;;;;16.77;7.18;;;14.50;99.90;;;;;;4937581;29;20106;-68
2022/10/27 01:24:37;;;;;;;17.38;6.40;;;14.50;99.90;;;;;;4956534;28;20047;-68
2022/10/27 01:27:07;;;;;;;12.13;6.15;;;14.40;99.90;;;;;;4959961;28;20561;-68
2022/10/27 01:29:54;;;;;;;11.60;5.80;;;14.30;99.90;;;;;;4943158;29;20043;-68
2022/10/27 01:32:40;;;;;;;10.57;5.95;;;14.50;99.90;;;;;;4961182;29;20039;-68
2022/10/27 01:35:18;;;;;;;10.93;6.13;;;14.30;99.90;;;;;;4960362;28;20039;-68
2022/10/27 01:37:47;;;;;;;13.40;6.43;;;14.50;99.90;;;;;;4960904;29;20450;-68
2022/10/27 01:40:26;;;;;;;15.82;6.38;;;14.30;99.90;;;;;;4957969;28;20038;-69
2022/10/27 01:43:01;;;;;;;8.57;6.30;;;14.40;99.90;;;;;;4951465;29;20039;-69
2022/10/27 01:45:30;;;;;;;13.17;7.00;;;15.10;99.90;;;;;;4937453;29;20043;-69
2022/10/27 01:47:57;;;;;;;11.23;6.70;;;14.30;99.90;;;;;;4942658;29;20094;-68
2022/10/27 01:50:29;;;;;;;9.35;6.57;;;14.40;99.90;;;;;;4960709;29;20086;-68
2022/10/27 01:52:56;;;;;;;12.52;6.82;;;;;;;;;;4943522;29;20035;-68
2022/10/27 01:55:38;;;;;;;12.95;6.32;;;14.40;99.90;;;;;;4959672;28;20051;-69
2022/10/27 01:58:07;;;;;;;11.68;6.30;;;14.50;99.90;;;;;;4960312;28;20098;-68
2022/10/27 02:00:42;;;;;;;11.18;6.20;;;14.60;99.90;;;;;;4943782;29;20055;-69
2022/10/27 02:03:15;;;;;;;13.63;6.38;;;14.40;99.90;;;;;;4960663;28;20051;-68
2022/10/27 02:05:52;;;;;;;14.50;6.70;;;14.40;99.90;;;;;;4960725;28;20082;-69
2022/10/27 02:08:49;;;;;;;13.15;6.13;;;14.50;99.90;;;;;;4943425;29;20055;-69
2022/10/27 02:11:15;;;;;;;12.55;6.50;;;14.50;99.90;;;;;;4940701;29;20124;-69
2022/10/27 02:13:43;;;;;;;14.27;6.72;;;14.60;99.90;;;;;;4960285;28;20541;-69
2022/10/27 02:16:23;;;;;;;13.95;6.75;;;14.60;99.90;;;;;;4943271;29;20046;-68
2022/10/27 02:18:54;;;;;;;13.82;6.93;;;14.50;99.90;;;;;;4943366;29;20094;-68
2022/10/27 02:21:22;;;;;;;15.00;6.55;;;14.40;99.90;;;;;;4960860;29;20079;-68
2022/10/27 02:23:48;;;;;;;10.43;6.20;;;14.50;99.90;;;;;;4958942;28;20046;-68
2022/10/27 02:26:25;;;;;;;15.18;6.53;;;14.60;99.90;;;;;;4943297;29;20050;-68
2022/10/27 02:29:00;;;;;;;11.05;6.50;;;14.40;99.90;;;;;;4943373;29;20055;-68
2022/10/27 02:31:36;;;;;;;11.10;6.97;;;14.40;99.90;;;;;;4960646;28;20552;-68
2022/10/27 02:34:05;;;;;;;16.52;6.70;;;14.50;99.90;;;;;;4960284;29;20437;-68
2022/10/27 02:36:32;;;;;;;12.77;6.43;;;14.30;99.90;;;;;;4940141;28;20663;-68
2022/10/27 02:38:57;;;;;;;10.43;6.40;;;14.50;99.90;;;;;;4954786;28;20039;-68
2022/10/27 02:41:23;;;;;;;16.33;6.60;;;14.50;99.90;;;;;;4957690;29;20139;-68
2022/10/27 02:43:49;;;;;;;12.30;6.88;;;;;;;;;;4939676;29;20043;-68
2022/10/27 02:46:15;;;;;;;10.35;6.82;;;;;;;;;;4924214;29;20047;-68
2022/10/27 02:48:40;;;;;;;11.65;6.05;;;14.60;99.90;;;;;;4957494;29;20047;-68
2022/10/27 02:51:06;;;;;;;11.32;6.75;;;14.40;99.90;;;;;;4939919;29;20035;-68
2022/10/27 02:53:32;;;;;;;12.57;6.13;;;14.60;99.90;;;;;;4937427;28;20126;-68
2022/10/27 02:55:57;;;;;;;15.38;6.95;;;14.50;99.90;;;;;;4956796;29;20137;-68
2022/10/27 02:58:23;;;;;;;12.40;7.05;;;14.60;99.90;;;;;;4939968;29;20478;-68
2022/10/27 03:00:55;;;;;;;14.45;7.80;;;14.50;99.90;;;;;;4940163;29;20098;-68
2022/10/27 03:03:21;;;;;;;16.73;7.28;;;14.50;99.90;;;;;;4939753;29;20043;-68
2022/10/27 03:05:47;;;;;;;13.50;7.40;;;14.40;99.90;;;;;;4939704;29;20051;-68
2022/10/27 03:08:13;;;;;;;13.70;7.20;;;14.50;99.90;;;;;;4938271;28;20062;-68
2022/10/27 03:10:38;;;;;;;22.05;8.13;;;14.50;99.90;;;;;;4956876;29;20051;-68
2022/10/27 03:13:04;;;;;;;11.48;6.80;;;14.50;99.90;;;;;;4956708;29;20039;-68
2022/10/27 03:15:30;;;;;;;24.98;8.55;;;14.50;99.90;;;;;;4939671;29;20039;-68
2022/10/27 03:17:56;;;;;;;17.75;7.70;;;;;;;;;;4939614;29;20090;-68
2022/10/27 03:20:21;;;;;;;17.35;7.18;;;14.70;99.90;;;;;;4954441;28;20058;-68
2022/10/27 03:22:47;;;;;;;14.95;7.60;;;14.40;99.90;;;;;;4956159;28;20031;-68
2022/10/27 03:25:14;;;;;;;12.90;7.50;;;;;;;;;;4939379;29;20043;-68
2022/10/27 03:27:41;;;;;;;13.48;7.82;;;14.30;99.90;;;;;;4956859;29;20039;-68
2022/10/27 03:30:09;;;;;;;15.23;8.02;;;14.40;99.90;;;;;;4956571;29;20043;-68
2022/10/27 03:32:34;;;;;;;15.65;7.97;;;14.40;99.90;;;;;;4939654;29;20050;-68
2022/10/27 03:35:00;;;;;;;18.92;8.80;;;;;;;;;;4954807;28;20027;-68
2022/10/27 03:37:26;;;;;;;13.55;8.77;;;;;;;;;;4938621;28;20046;-68
2022/10/27 03:39:52;;;;;;;15.75;9.02;;;14.20;99.90;;;;;;4938381;29;20406;-68
2022/10/27 03:42:18;;;;;;;16.85;9.00;;;;;;;;;;4956500;29;20122;-68
2022/10/27 03:44:43;;;;;;;21.27;9.00;;;14.10;99.90;;;;;;4956112;29;20055;-68
2022/10/27 03:47:09;;;;;;;16.10;9.60;;;14.10;99.90;;;;;;4956087;28;20039;-68
2022/10/27 03:49:35;;;;;;;22.35;9.90;;;13.90;99.90;;;;;;4955751;29;20046;-68
2022/10/27 03:52:00;;;;;;;19.65;10.05;;;13.90;99.90;;;;;;4938836;29;20039;-68
2022/10/27 03:54:29;;;;;;;24.88;10.63;;;13.90;99.90;;;;;;4933870;28;20035;-68
2022/10/27 03:56:55;;;;;;;19.85;10.10;;;13.80;99.90;;;;;;4921585;29;20127;-68
2022/10/27 03:59:21;;;;;;;16.60;9.45;;;13.80;99.90;;;;;;4937366;29;20055;-68
2022/10/27 04:01:46;;;;;;;16.23;9.13;;;13.90;99.90;;;;;;4953807;29;20140;-68
2022/10/27 04:04:12;;;;;;;17.45;9.88;;;;;;;;;;4955802;29;20051;-68
2022/10/27 04:06:38;;;;;;;19.45;8.98;;;13.80;99.90;;;;;;4955681;28;20509;-68
2022/10/27 04:09:04;;;;;;;16.20;9.82;;;13.90;99.90;;;;;;4956011;29;20126;-68
2022/10/27 04:11:30;;;;;;;23.67;9.98;;;;;;;;;;4938361;29;20102;-68
2022/10/27 04:13:55;;;;;;;23.52;10.82;;;13.80;99.90;;;;;;4948502;28;20035;-68
2022/10/27 04:16:21;;;;;;;19.42;9.60;;;13.80;99.90;;;;;;4938464;29;20182;-68
2022/10/27 04:18:47;;;;;;;18.00;10.80;;;13.90;99.90;;;;;;4938506;29;20079;-68
2022/10/27 04:21:14;;;;;;;17.23;9.95;;;;;;;;;;4938160;28;20082;-68
2022/10/27 04:23:39;;;;;;;17.75;9.45;;;13.90;99.90;;;;;;4955678;29;20035;-68
2022/10/27 04:26:05;;;;;;;17.85;11.23;;;;;;;;;;4955056;28;20406;-68
2022/10/27 04:28:31;;;;;;;20.27;10.38;;;13.80;99.90;;;;;;4935366;29;20457;-68
2022/10/27 04:30:56;;;;;;;18.42;10.35;;;13.90;99.90;;;;;;4938235;29;20040;-68
2022/10/27 04:33:22;;;;;;;20.52;10.95;;;13.70;99.90;;;;;;4955216;29;20062;-68
2022/10/27 04:35:47;;;;;;;19.50;10.50;;;13.60;99.90;;;;;;4955264;29;20046;-68
2022/10/27 04:38:13;;;;;;;16.70;10.55;;;13.70;99.90;;;;;;4938133;29;20047;-68
2022/10/27 04:40:39;;;;;;;15.00;10.55;;;13.70;99.90;;;;;;4955470;29;20118;-68
2022/10/27 04:43:05;;;;;;;21.45;12.07;;;13.70;99.90;;;;;;4936370;29;20508;-68
2022/10/27 04:45:32;;;;;;;21.00;11.00;;;13.60;99.90;;;;;;4955254;29;20501;-68
2022/10/27 04:47:57;;;;;;;19.73;10.93;;;13.70;99.90;;;;;;4955075;28;20128;-68
2022/10/27 04:50:23;;;;;;;20.00;10.07;;;;;;;;;;4954876;29;20043;-68
2022/10/27 04:53:02;;;;;;;18.58;11.65;;;13.70;99.90;;;;;;4937998;29;20043;-68
2022/10/27 04:55:30;;;;;;;19.17;10.27;;;13.60;99.90;;;;;;4954307;28;20066;-68
2022/10/27 04:57:56;;;;;;;15.95;9.38;;;13.70;99.90;;;;;;4953677;28;20047;-68
2022/10/27 05:00:23;;;;;;;23.00;11.25;;;13.80;99.90;;;;;;4954388;28;20081;-68
2022/10/27 05:02:54;;;;;;;19.92;11.00;;;13.70;99.90;;;;;;4953393;29;20055;-68
2022/10/27 05:05:21;;;;;;;15.35;10.98;;;13.70;99.90;;;;;;4955152;29;20450;-68
2022/10/27 05:07:55;;;;;;;21.20;10.23;;;13.80;99.90;;;;;;4955029;29;20086;-68
2022/10/27 05:10:21;;;;;;;16.65;10.77;;;13.80;99.90;;;;;;4941581;29;20047;-68
2022/10/27 05:12:46;;;;;;;14.15;10.75;;;14.00;99.90;;;;;;4953025;28;20072;-68
2022/10/27 05:15:12;;;;;;;21.55;10.80;;;13.80;99.90;;;;;;4954638;29;20027;-68
2022/10/27 05:17:38;;;;;;;17.05;11.32;;;;;;;;;;4954832;28;20066;-68
2022/10/27 05:20:04;;;;;;;17.25;9.18;;;13.90;99.90;;;;;;4954868;29;20044;-68
2022/10/27 05:22:30;;;;;;;17.58;10.10;;;;;;;;;;4928014;29;20043;-67
2022/10/27 05:24:56;;;;;;;16.95;9.70;;;13.70;99.90;;;;;;4949663;29;20039;-68
2022/10/27 05:27:21;;;;;;;15.93;10.32;;;13.90;99.90;;;;;;4953402;28;20576;-68
2022/10/27 05:29:47;;;;;;;18.48;9.65;;;13.80;99.90;;;;;;4954604;29;20047;-67
2022/10/27 05:32:13;;;;;;;17.10;9.90;;;13.80;99.90;;;;;;4954481;29;20536;-68
2022/10/27 05:34:38;;;;;;;17.23;10.45;;;13.70;99.90;;;;;;4954322;29;20490;-68
2022/10/27 05:37:04;;;;;;;23.98;10.63;;;13.90;99.90;;;;;;4954575;29;20394;-68
2022/10/27 05:39:29;;;;;;;14.07;9.70;;;13.80;99.90;;;;;;4949361;29;20039;-68
2022/10/27 05:41:55;;;;;;;16.55;10.15;;;14.00;99.90;;;;;;4931531;29;20130;-68
2022/10/27 05:44:21;;;;;;;16.10;10.27;;;;;;;;;;4927997;29;20039;-68
2022/10/27 05:46:46;;;;;;;22.83;10.70;;;13.80;99.90;;;;;;4928288;29;20047;-68
2022/10/27 05:49:12;;;;;;;18.30;9.82;;;14.00;99.90;;;;;;4944223;29;20418;-68
2022/10/27 05:51:38;;;;;;;18.15;10.10;;;;;;;;;;4927687;28;20050;-68
2022/10/27 05:54:03;;;;;;;16.77;9.93;;;14.00;99.90;;;;;;4954502;28;20105;-68
2022/10/27 05:56:29;;;;;;;17.10;10.07;;;;;;;;;;4936220;29;20066;-68
2022/10/27 05:58:55;;;;;;;19.33;9.88;;;14.00;99.90;;;;;;4937357;29;20055;-68
2022/10/27 06:01:21;;;;;;;20.52;10.05;;;14.00;99.90;;;;;;4934771;29;20054;-68
2022/10/27 06:03:46;;;;;;;20.48;9.82;;;13.70;99.90;;;;;;4927018;29;20098;-68
2022/10/27 06:06:12;;;;;;;14.57;9.75;;;13.90;99.90;;;;;;4953345;28;20409;-67
2022/10/27 06:08:38;;;;;;;16.15;9.63;;;;;;;;;;4954780;29;20092;-68
2022/10/27 06:11:03;;;;;;;16.27;10.02;;;14.00;99.90;;;;;;4938128;28;20139;-68
2022/10/27 06:13:29;;;;;;;17.60;9.88;;;13.90;99.90;;;;;;4941516;29;20031;-68
2022/10/27 06:15:55;;;;;;;20.05;10.73;;;13.90;99.90;;;;;;4958062;29;20047;-68
2022/10/27 06:18:20;;;;;;;16.95;10.02;;;13.80;99.90;;;;;;4940650;29;20039;-68
2022/10/27 06:20:47;;;;;;;18.48;9.18;;;;;;;;;;4956171;29;20406;-68
2022/10/27 06:23:13;;;;;;;14.30;9.63;;;13.80;99.90;;;;;;4957594;29;20042;-68
2022/10/27 06:25:39;;;;;;;12.75;10.00;;;13.90;99.90;;;;;;4956545;28;20448;-68
2022/10/27 06:28:05;;;;;;;13.13;9.68;;;;;;;;;;4957164;28;20036;-68
2022/10/27 06:30:30;;;;;;;11.43;8.35;;;13.90;99.90;;;;;;4957548;29;20417;-68
2022/10/27 06:32:56;;;;;;;21.23;10.38;;;14.00;99.90;;;;;;4939390;29;20170;-68
2022/10/27 06:35:21;;;;;;;15.60;9.30;;;14.00;99.90;;;;;;4940151;29;20536;-68
2022/10/27 06:37:47;;;;;;;12.15;9.13;;;13.90;99.90;;;;;;4957356;29;20124;-68
2022/10/27 06:40:18;;;;;;;16.48;9.00;;;13.90;99.90;;;;;;4953566;28;20039;-68
2022/10/27 06:42:46;;;;;;;15.32;9.45;;;;;;;;;;4932854;29;20039;-67
2022/10/27 06:45:12;;;;;;;19.98;9.52;;;13.90;99.90;;;;;;4956792;28;20446;-67
2022/10/27 06:47:38;;;;;;;14.02;10.75;;;14.00;99.90;;;;;;4940374;29;20090;-67
2022/10/27 06:50:05;;;;;;;17.13;9.50;;;14.00;99.90;;;;;;4957333;28;20035;-68
2022/10/27 06:52:34;;;;;;;16.00;8.80;;;14.00;99.90;;;;;;4956344;28;20042;-68
2022/10/27 06:54:59;;;;;;;13.65;9.07;;;14.10;99.90;;;;;;4957162;28;20043;-67
2022/10/27 06:57:25;;;;;;;18.02;9.80;;;13.90;99.90;;;;;;4955956;28;20131;-67
2022/10/27 06:59:50;;;;;;;14.32;9.15;;;14.10;99.90;;;;;;4959079;29;20157;-67
2022/10/27 07:02:16;;;;;;;13.18;8.98;;;14.00;99.90;;;;;;4940529;28;20055;-68
2022/10/27 07:04:41;;;;;;;15.05;8.43;;;14.20;99.90;;;;;;4957862;28;20457;-67
2022/10/27 07:07:07;;;;;;;14.55;8.70;;;14.00;99.90;;;;;;4935005;29;20501;-68
2022/10/27 07:09:33;;;;;;;18.23;8.85;;;13.90;99.90;;;;;;4952291;28;20115;-68
2022/10/27 07:11:58;;;;;;;13.20;8.23;;;14.00;99.90;;;;;;4951276;28;20032;-68
2022/10/27 07:14:24;;;;;;;16.65;9.75;;;14.10;99.90;;;;;;4938358;29;20042;-67
2022/10/27 07:16:49;;;;;;;12.57;7.78;;;14.10;99.90;;;;;;4924455;28;20043;-68
2022/10/27 07:19:15;;;;;;;15.88;7.88;;;14.20;99.90;;;;;;4957911;28;20070;-68
2022/10/27 07:21:40;;;;;;;11.68;7.10;;;14.30;99.90;;;;;;4941605;28;20126;-68
2022/10/27 07:24:06;;;;;;;13.57;7.72;;;14.30;99.90;;;;;;4957346;28;20410;-67
2022/10/27 07:26:32;;;;;;;11.75;7.45;;;;;;;;;;4953298;28;20031;-68
2022/10/27 07:28:58;;;;;;;14.05;7.78;;;;;;;;;;4955297;28;20421;-67
2022/10/27 07:31:24;;;;;;;10.13;6.95;;;14.50;99.90;;;;;;4937242;28;20043;-67
2022/10/27 07:33:50;;;;;;;10.85;7.45;;;;;;;;;;4938165;28;20039;-67
2022/10/27 07:36:16;;;;;;;11.30;6.55;;;;;;;;;;4955268;28;20035;-67
2022/10/27 07:38:41;;;;;;;10.05;6.53;;;14.50;99.90;;;;;;4938761;28;20520;-67
2022/10/27 07:41:07;;;;;;;12.90;7.53;;;14.50;99.90;;;;;;4937798;28;20057;-67
2022/10/27 07:43:34;;;;;;;14.45;7.07;;;14.60;99.90;;;;;;4955610;28;20050;-67
2022/10/27 07:45:59;;;;;;;11.35;6.72;;;14.70;99.90;;;;;;4953596;28;20122;-67
2022/10/27 07:48:25;;;;;;;10.82;5.72;;;14.60;99.90;;;;;;4955577;28;20043;-67
2022/10/27 07:50:50;;;;;;;12.20;6.15;;;14.60;99.90;;;;;;4953597;28;20039;-67
2022/10/27 07:53:17;;;;;;;10.77;6.50;;;;;;;;;;4953815;29;20082;-66
2022/10/27 07:55:43;;;;;;;8.75;6.03;;;14.80;99.90;;;;;;4953271;28;20509;-67
2022/10/27 07:58:08;;;;;;;9.88;6.20;;;14.90;99.90;;;;;;4955352;29;20046;-67
2022/10/27 08:00:36;;;;;;;13.98;6.38;;;14.80;99.90;;;;;;4937473;28;20053;-67
2022/10/27 08:03:03;;;;;;;12.75;6.78;;;15.00;99.90;;;;;;4938314;28;20103;-67
2022/10/27 08:05:31;;;;;;;15.13;7.63;;;15.00;99.90;;;;;;4938584;29;20414;-67
2022/10/27 08:07:58;;;;;;;9.63;5.57;;;15.20;99.90;;;;;;4936352;29;20039;-67
2022/10/27 08:10:24;;;;;;;11.60;6.28;;;15.20;99.90;;;;;;4953552;28;20047;-67
2022/10/27 08:12:49;;;;;;;10.25;5.38;;;15.10;99.90;;;;;;4937070;29;20044;-67
2022/10/27 08:15:15;;;;;;;9.77;5.70;;;;;;;;;;4934322;29;20484;-67
2022/10/27 08:17:41;;;;;;;9.57;5.88;;;15.30;99.90;;;;;;4921202;29;20061;-66
2022/10/27 08:20:07;;;;;;;12.57;6.07;;;15.40;99.90;;;;;;4953800;28;20046;-67
2022/10/27 08:22:34;;;;;;;17.50;6.22;;;;;;;;;;4931271;29;20102;-67
2022/10/27 08:24:59;;;;;;;13.65;6.10;;;15.70;99.90;;;;;;4952998;29;20050;-67
2022/10/27 08:27:25;;;;;;;11.82;7.50;;;;;;;;;;4934029;28;20051;-67
2022/10/27 08:29:51;;;;;;;10.40;5.60;;;16.90;99.90;;;;;;4951089;28;20517;-67
2022/10/27 08:32:17;;;;;;;9.95;5.00;;;;;;;;;;4952982;28;20050;-67
2022/10/27 08:34:42;;;;;;;8.57;5.05;;;18.50;99.90;;;;;;4953123;28;20129;-67
2022/10/27 08:37:08;;;;;;;7.50;4.25;;;;;;;;;;4934497;28;20039;-67
2022/10/27 08:39:34;;;;;;;12.93;4.90;;;19.60;99.90;;;;;;4953806;28;20041;-67
2022/10/27 08:42:29;;;;;;;8.63;4.78;;;19.60;99.90;;;;;;4934858;29;20382;-67
2022/10/27 08:45:06;;;;;;;7.97;4.80;;;20.10;99.90;;;;;;4910772;29;20059;-67
2022/10/27 08:47:32;;;;;;;9.85;4.50;;;20.90;99.90;;;;;;4953198;28;20110;-68
2022/10/27 08:50:18;;;;;;;9.65;4.43;;;21.80;99.90;;;;;;4934210;29;20098;-67
2022/10/27 08:52:50;;;;;;;7.30;3.47;;;22.30;99.90;;;;;;4952816;28;20111;-67
2022/10/27 08:55:19;;;;;;;9.30;3.78;;;22.90;99.90;;;;;;4936927;28;20156;-68
2022/10/27 08:57:59;;;;;;;8.73;3.75;;;22.70;99.90;;;;;;4934462;29;20055;-68
2022/10/27 09:00:28;;;;;;;9.27;4.03;;;22.30;99.90;;;;;;4950472;28;20039;-67
2022/10/27 09:03:21;;;;;;;9.85;3.55;;;23.60;99.90;;;;;;4931259;29;20074;-67
2022/10/27 09:05:52;;;;;;;8.00;3.33;;;22.20;99.90;;;;;;4936527;28;20138;-68
2022/10/27 09:08:42;;;;;;;8.07;3.35;;;22.80;99.90;;;;;;4936379;29;20437;-68
2022/10/27 09:11:14;;;;;;;7.70;3.65;;;22.90;99.90;;;;;;4953144;29;20038;-68
2022/10/27 09:14:19;;;;;;;7.03;2.75;;;22.50;99.90;;;;;;4952335;29;20035;-68
2022/10/27 09:16:51;;;;;;;7.32;2.85;;;21.90;99.90;;;;;;4884959;29;20245;-68
2022/10/27 09:19:37;;;;;;;5.18;2.80;;;21.80;99.90;;;;;;4937436;29;20106;-68
2022/10/27 09:22:05;;;;;;;10.15;3.08;;;21.10;99.90;;;;;;4953725;28;20042;-67
2022/10/27 09:24:36;;;;;;;8.02;3.38;;;21.20;99.90;;;;;;4937460;29;20130;-67
2022/10/27 09:27:03;;;;;;;7.63;2.83;;;20.80;99.90;;;;;;4952312;29;20039;-67
2022/10/27 09:29:30;;;;;;;8.30;2.60;;;20.60;99.90;;;;;;4953514;28;20075;-67
2022/10/27 09:32:11;;;;;;;6.85;2.67;;;20.30;99.90;;;;;;4929465;29;20039;-68
2022/10/27 09:34:45;;;;;;;7.35;3.17;;;19.90;99.90;;;;;;4934826;28;20035;-68
2022/10/27 09:37:15;;;;;;;6.65;2.60;;;19.40;99.90;;;;;;4953799;28;20051;-67
2022/10/27 09:39:52;;;;;;;6.00;2.95;;;19.40;99.90;;;;;;4947484;28;20031;-68
2022/10/27 09:42:18;;;;;;;9.90;2.67;;;18.80;99.90;;;;;;4953955;29;20051;-67
2022/10/27 09:44:56;;;;;;;9.70;2.90;;;18.80;99.90;;;;;;4935712;28;20047;-68
2022/10/27 09:47:24;;;;;;;5.90;2.55;;;18.80;99.90;;;;;;4940323;29;20106;-68
2022/10/27 09:49:52;;;;;;;7.47;2.85;;;18.70;99.90;;;;;;4940177;28;20039;-67
2022/10/27 09:52:41;;;;;;;6.18;2.60;;;18.60;99.90;;;;;;4931850;29;20043;-68
2022/10/27 09:55:07;;;;;;;7.70;2.63;;;18.60;99.90;;;;;;4940929;29;21195;-67
2022/10/27 09:57:36;;;;;;;7.93;3.40;;;18.60;99.90;;;;;;4957326;29;20051;-67
2022/10/27 10:00:07;;;;;;;5.57;2.42;;;18.50;99.90;;;;;;4944356;28;20039;-67
2022/10/27 10:02:36;;;;;;;6.90;2.45;;;18.60;99.90;;;;;;4940269;29;20043;-68
2022/10/27 10:05:16;;;;;;;5.15;2.45;;;18.50;99.90;;;;;;4940096;29;20047;-68
2022/10/27 10:07:43;;;;;;;4.15;2.25;;;18.60;99.90;;;;;;4949290;29;20055;-68
2022/10/27 10:10:21;;;;;;;5.63;2.20;;;18.70;99.90;;;;;;4956411;29;20102;-68
2022/10/27 10:13:08;;;;;;;5.50;2.20;;;18.60;99.90;;;;;;4940434;29;20046;-68
2022/10/27 10:15:41;;;;;;;6.68;2.38;;;18.70;99.90;;;;;;4935677;29;20378;-68
2022/10/27 10:18:27;;;;;;;10.50;2.33;;;18.80;99.90;;;;;;4954021;28;20046;-68
2022/10/27 10:21:12;;;;;;;5.10;2.10;;;18.80;99.90;;;;;;4957354;28;20090;-67
2022/10/27 10:23:47;;;;;;;5.60;2.33;;;18.80;99.90;;;;;;4940133;29;20035;-67
2022/10/27 10:26:25;;;;;;;4.68;1.63;;;18.70;99.90;;;;;;4950464;29;20044;-69
2022/10/27 10:28:54;;;;;;;7.60;2.22;;;19.00;99.90;;;;;;4939374;29;20051;-68
2022/10/27 10:31:27;;;;;;;5.10;2.03;;;18.90;99.90;;;;;;4948188;29;20066;-69
2022/10/27 10:34:03;;;;;;;5.72;2.30;;;18.70;99.90;;;;;;4940975;29;20039;-68
2022/10/27 10:36:35;;;;;;;6.45;2.08;;;18.90;99.90;;;;;;4944976;29;20047;-68
2022/10/27 10:39:01;;;;;;;6.20;1.95;;;18.90;99.90;;;;;;4953717;28;20533;-68
2022/10/27 10:41:28;;;;;;;5.18;1.70;;;18.90;99.90;;;;;;4954097;28;20040;-68
2022/10/27 10:44:10;;;;;;;4.63;1.85;;;18.90;99.90;;;;;;4953478;29;20050;-68
2022/10/27 10:46:39;;;;;;;6.07;1.73;;;19.20;99.90;;;;;;4952069;29;20089;-69
2022/10/27 10:49:12;;;;;;;5.45;2.17;;;19.20;99.90;;;;;;4957376;29;20035;-69
2022/10/27 10:51:38;;;;;;;3.63;1.85;;;19.10;99.90;;;;;;4950809;28;20038;-69
2022/10/27 10:54:04;;;;;;;5.57;2.45;;;19.30;99.90;;;;;;4951696;29;20070;-69
2022/10/27 10:56:33;;;;;;;5.28;1.88;;;19.20;99.90;;;;;;4935602;28;20059;-69
2022/10/27 10:59:15;;;;;;;4.55;1.75;;;19.50;99.90;;;;;;4939705;29;20066;-69
2022/10/27 11:01:46;;;;;;;5.72;2.00;;;19.30;99.90;;;;;;4940116;29;20434;-69
2022/10/27 11:04:16;;;;;;;5.22;1.77;;;19.60;99.90;;;;;;4957340;29;20051;-69
2022/10/27 11:07:04;;;;;;;5.88;2.22;;;19.10;99.90;;;;;;4954302;28;20071;-69
2022/10/27 11:09:44;;;;;;;6.50;1.75;;;19.50;99.90;;;;;;4957145;29;20103;-69
2022/10/27 11:12:38;;;;;;;8.32;2.20;;;19.50;99.90;;;;;;4946047;29;20043;-69
2022/10/27 11:15:22;;;;;;;4.75;1.75;;;19.50;99.90;;;;;;4944733;29;20080;-69
2022/10/27 11:17:51;;;;;;;4.43;1.35;;;19.40;99.90;;;;;;4957034;29;20594;-69
2022/10/27 11:20:24;;;;;;;3.38;1.60;;;19.50;99.90;;;;;;4956746;29;20513;-69
2022/10/27 11:22:52;;;;;;;4.50;1.20;;;19.40;99.90;;;;;;4952237;28;20051;-69
2022/10/27 11:25:22;;;;;;;7.75;2.80;;;19.30;99.90;;;;;;4941402;29;20077;-68
2022/10/27 11:28:10;;;;;;;4.97;1.25;;;19.40;99.90;;;;;;4950455;28;20253;-69
2022/10/27 11:30:40;;;;;;;5.63;1.05;;;19.40;99.90;;;;;;4950716;28;20098;-69
2022/10/27 11:33:16;;;;;;;4.07;1.23;;;19.40;99.90;;;;;;4953297;29;20081;-69
2022/10/27 11:36:06;;;;;;;5.50;1.20;;;19.30;99.90;;;;;;4951852;28;20174;-70
2022/10/27 11:39:01;;;;;;;4.75;1.52;;;19.30;99.90;;;;;;4938155;29;20043;-69
2022/10/27 11:41:44;;;;;;;8.85;1.40;;;19.40;99.90;;;;;;4959656;29;20039;-69
2022/10/27 11:44:26;;;;;;;6.45;1.20;;;19.40;99.90;;;;;;4939857;29;20035;-69
2022/10/27 11:46:57;;;;;;;4.72;0.82;;;19.40;99.90;;;;;;4940870;29;20401;-69
2022/10/27 11:49:27;;;;;;;4.78;0.95;;;19.30;99.90;;;;;;4957207;28;20098;-68
2022/10/27 11:52:02;;;;;;;5.65;1.02;;;19.30;99.90;;;;;;4956618;28;20047;-68
2022/10/27 11:54:29;;;;;;;3.65;1.33;;;19.60;99.90;;;;;;4958247;28;20043;-68
2022/10/27 11:57:47;;;;;;;7.28;1.42;;;19.70;99.90;;;;;;4957369;28;20055;-68
2022/10/27 12:00:27;;;;;;;7.07;0.85;;;19.80;99.90;;;;;;4921322;29;20047;-68
2022/10/27 12:02:59;;;;;;;3.15;1.00;;;19.90;99.90;;;;;;4940654;29;20043;-68
2022/10/27 12:05:39;;;;;;;9.95;1.27;;;19.80;99.90;;;;;;4940595;28;20062;-68
2022/10/27 12:08:23;;;;;;;2.25;0.65;;;19.90;99.90;;;;;;4925469;28;20071;-68
2022/10/27 12:11:13;;;;;;;2.90;0.82;;;20.00;99.90;;;;;;4942135;29;20079;-69
2022/10/27 12:13:51;;;;;;;5.65;1.00;;;19.80;99.90;;;;;;4932858;29;20039;-68
2022/10/27 12:16:41;;;;;;;5.72;0.90;;;21.90;99.90;;;;;;4944506;29;20110;-68
2022/10/27 12:19:16;;;;;;;3.40;0.95;;;19.80;99.90;;;;;;4943225;29;20170;-68
2022/10/27 12:22:29;;;;;;;4.90;0.70;;;19.60;99.90;;;;;;4938786;29;20130;-67
2022/10/27 12:24:59;;;;;;;2.40;0.77;;;19.70;99.90;;;;;;4933629;29;20429;-68
2022/10/27 12:27:47;;;;;;;5.35;0.85;;;19.80;99.90;;;;;;4932681;29;20051;-67
2022/10/27 12:30:18;;;;;;;5.93;0.82;;;19.80;99.90;;;;;;4940593;29;20086;-68
2022/10/27 12:33:01;;;;;;;4.53;0.90;;;19.80;99.90;;;;;;4957329;29;20036;-68
2022/10/27 12:35:34;;;;;;;4.00;0.65;;;19.70;99.90;;;;;;4924720;29;20109;-68
2022/10/27 12:38:18;;;;;;;8.52;0.98;;;19.80;99.90;;;;;;4955673;28;20046;-67
2022/10/27 12:40:55;;;;;;;3.63;0.80;;;19.70;99.90;;;;;;4941722;29;20039;-68
2022/10/27 12:43:23;;;;;;;4.18;0.80;;;21.50;99.90;;;;;;4959757;29;20047;-69
2022/10/27 12:46:07;;;;;;;2.08;0.70;;;19.70;99.90;;;;;;4939099;28;20035;-68
2022/10/27 12:48:46;;;;;;;4.93;1.00;;;19.80;99.90;;;;;;4939294;28;20062;-68
2022/10/27 12:51:26;;;;;;;4.70;0.95;;;19.70;99.90;;;;;;4938150;28;20054;-67
2022/10/27 12:54:09;;;;;;;3.60;0.95;;;19.50;99.90;;;;;;4937687;28;20054;-68
2022/10/27 12:56:40;;;;;;;3.53;1.02;;;19.70;99.90;;;;;;4955666;28;20051;-68
2022/10/27 12:59:42;;;;;;;2.83;0.60;;;19.60;99.90;;;;;;4936536;28;20059;-68
2022/10/27 13:02:10;;;;;;;3.97;0.80;;;19.70;99.90;;;;;;4935988;28;20484;-66
2022/10/27 13:04:54;;;;;;;4.57;1.10;;;19.60;99.90;;;;;;4953049;28;20043;-66
2022/10/27 13:07:38;;;;;;;5.40;0.80;;;19.60;99.90;;;;;;4936564;29;20054;-67